Time;durP1;ratioP1;P1;durP2;ratioP2;P2;SDS_P1;SDS_P2;PMS_P1;PMS_P2;Temp;Humidity;BMP_temperature;BMP_pressure;BME280_temperature;BME280_humidity;BME280_pressure;Samples;Min_cycle;Max_cycle;Signal;HPM_P1;HPM_P2
2021/04/17 00:01:53;;;;;;;14.80;11.10;;;;;;;5.29;100.00;96778.13;5036002;28;20073;-50
2021/04/17 00:04:22;;;;;;;13.63;9.73;;;;;;;5.27;100.00;96776.56;5040754;28;20069;-47
2021/04/17 00:06:50;;;;;;;14.13;10.52;;;;;;;5.31;100.00;96775.41;5046589;28;20092;-47
2021/04/17 00:09:21;;;;;;;16.55;11.43;;;;;;;5.10;100.00;96770.69;5040000;28;20462;-49
2021/04/17 00:11:50;;;;;;;16.10;10.85;;;;;;;5.05;100.00;96770.16;5042660;28;20403;-50
2021/04/17 00:14:19;;;;;;;14.93;10.93;;;;;;;5.02;100.00;96772.13;5043206;28;20072;-50
2021/04/17 00:16:56;;;;;;;16.20;10.95;;;;;;;5.05;100.00;96767.53;5038051;28;20060;-55
2021/04/17 00:19:24;;;;;;;16.95;10.75;;;;;;;5.03;100.00;96758.16;5046330;28;20061;-49
2021/04/17 00:21:51;;;;;;;14.90;10.27;;;;;;;5.09;100.00;96768.16;5042678;28;20396;-50
2021/04/17 00:24:19;;;;;;;18.15;11.27;;;;;;;5.10;100.00;96764.63;5042933;28;20076;-50
2021/04/17 00:26:46;;;;;;;16.80;11.32;;;;;;;5.13;100.00;96756.59;5041237;28;20565;-46
2021/04/17 00:29:15;;;;;;;17.95;12.38;;;;;;;5.19;100.00;96756.16;5043415;28;20075;-49
2021/04/17 00:31:42;;;;;;;17.67;12.38;;;;;;;5.24;100.00;96751.47;5041150;28;20076;-49
2021/04/17 00:34:10;;;;;;;17.05;11.27;;;;;;;5.30;100.00;96751.06;5043017;28;20077;-49
2021/04/17 00:36:37;;;;;;;18.42;11.20;;;;;;;5.34;100.00;96749.91;5048719;28;20472;-51
2021/04/17 00:39:05;;;;;;;14.98;10.93;;;;;;;5.41;100.00;96747.69;5034686;28;20152;-47
2021/04/17 00:41:33;;;;;;;14.13;10.27;;;;;;;5.43;100.00;96746.63;5043356;28;20522;-47
2021/04/17 00:44:02;;;;;;;15.85;10.32;;;;;;;5.02;100.00;96743.38;5041086;28;20463;-48
2021/04/17 00:46:31;;;;;;;13.77;10.63;;;;;;;4.73;100.00;96740.94;5045327;28;20810;-48
2021/04/17 00:48:59;;;;;;;15.02;10.60;;;;;;;4.78;100.00;96731.03;5040100;28;20076;-49
2021/04/17 00:51:27;;;;;;;13.90;10.13;;;;;;;4.98;100.00;96730.53;5045484;28;20076;-49
2021/04/17 00:53:54;;;;;;;13.82;10.40;;;;;;;4.70;100.00;96734.16;5042635;28;20541;-54
2021/04/17 00:56:22;;;;;;;14.05;9.70;;;;;;;4.60;100.00;96727.84;5043806;28;20083;-53
2021/04/17 00:58:49;;;;;;;13.88;10.13;;;;;;;4.37;100.00;96737.22;5039253;28;20064;-49
2021/04/17 01:01:18;;;;;;;14.70;10.60;;;;;;;4.20;100.00;96737.47;5044435;28;20072;-47
2021/04/17 01:03:53;;;;;;;15.38;11.10;;;;;;;4.19;100.00;96735.78;5041026;28;20534;-47
2021/04/17 01:06:22;;;;;;;15.00;9.95;;;;;;;4.17;100.00;96728.06;5042423;28;20476;-47
2021/04/17 01:08:54;;;;;;;13.07;9.73;;;;;;;4.40;100.00;96731.78;5035679;28;20541;-47
2021/04/17 01:11:26;;;;;;;13.85;10.15;;;;;;;4.33;100.00;96732.28;5043004;28;20049;-51
2021/04/17 01:13:55;;;;;;;13.13;9.50;;;;;;;4.48;100.00;96724.28;5034327;28;20068;-51
2021/04/17 01:16:23;;;;;;;12.68;10.25;;;;;;;4.33;100.00;96734.88;5047427;28;20075;-51
2021/04/17 01:18:52;;;;;;;14.30;10.50;;;;;;;4.33;100.00;96729.66;5040480;28;20105;-52
2021/04/17 01:21:21;;;;;;;14.75;10.80;;;;;;;4.25;100.00;96732.78;5043091;28;20084;-48
2021/04/17 01:23:51;;;;;;;12.30;9.88;;;;;;;4.13;100.00;96729.19;5037955;28;20057;-48
2021/04/17 01:26:22;;;;;;;14.35;10.88;;;;;;;4.24;100.00;96725.91;5046091;28;20072;-46
2021/04/17 01:28:52;;;;;;;13.50;10.18;;;;;;;4.26;100.00;96726.63;5039945;28;20069;-46
2021/04/17 01:31:25;;;;;;;15.07;11.05;;;;;;;4.16;100.00;96730.75;5045198;28;20073;-51
2021/04/17 01:33:56;;;;;;;14.27;10.65;;;;;;;4.13;100.00;96726.59;5047484;28;20106;-49
2021/04/17 01:36:25;;;;;;;14.32;10.15;;;;;;;3.96;100.00;96726.81;5050574;28;20080;-48
2021/04/17 01:38:55;;;;;;;13.48;10.13;;;;;;;3.81;100.00;96726.84;5040984;28;20045;-48
2021/04/17 01:41:26;;;;;;;14.18;10.23;;;;;;;3.81;100.00;96718.19;5045224;28;20110;-51
2021/04/17 01:43:57;;;;;;;13.57;10.35;;;;;;;3.77;100.00;96724.53;5043201;28;20084;-48
2021/04/17 01:46:27;;;;;;;15.63;11.55;;;;;;;3.83;100.00;96715.50;5044895;28;20439;-51
2021/04/17 01:48:58;;;;;;;14.85;10.40;;;;;;;3.78;100.00;96729.63;5048524;28;20104;-48
2021/04/17 01:51:27;;;;;;;15.90;11.02;;;;;;;3.80;100.00;96724.34;5043677;28;20080;-49
2021/04/17 01:53:56;;;;;;;16.95;11.77;;;;;;;3.77;100.00;96727.13;5050908;28;20092;-49
2021/04/17 01:56:25;;;;;;;16.20;10.85;;;;;;;3.76;100.00;96721.09;5047786;28;20079;-52
2021/04/17 01:58:53;;;;;;;16.08;11.50;;;;;;;3.71;100.00;96720.53;5041429;28;20475;-51
2021/04/17 02:01:21;;;;;;;18.85;12.05;;;;;;;3.96;100.00;96714.63;5047441;28;20518;-49
2021/04/17 02:03:48;;;;;;;18.35;12.60;;;;;;;4.05;100.00;96716.63;5050494;28;20071;-50
2021/04/17 02:06:16;;;;;;;18.92;11.95;;;;;;;3.98;100.00;96715.34;5045354;28;20509;-50
2021/04/17 02:08:44;;;;;;;17.73;12.32;;;;;;;3.89;100.00;96708.13;5059380;22;20341;-63
2021/04/17 02:11:11;;;;;;;17.77;12.63;;;;;;;4.07;100.00;96711.31;5005999;28;20093;-58
2021/04/17 02:13:42;;;;;;;17.33;11.93;;;;;;;3.83;100.00;96703.28;5014880;28;20521;-59
2021/04/17 02:16:11;;;;;;;;;;;;;;;3.82;100.00;96709.44;5010748;28;20082;-59
2021/04/17 02:18:47;;;;;;;16.77;11.70;;;;;;;3.72;100.00;96709.19;5011095;28;20380;-61
2021/04/17 02:21:18;;;;;;;17.73;11.05;;;;;;;3.71;100.00;96702.25;4987886;28;21942;-62
2021/04/17 02:23:47;;;;;;;17.48;12.00;;;;;;;3.65;100.00;96702.69;4989613;28;20034;-60
2021/04/17 02:26:14;;;;;;;18.95;11.85;;;;;;;3.66;100.00;96700.91;4988399;28;20070;-57
2021/04/17 02:28:43;;;;;;;15.15;11.00;;;;;;;3.48;100.00;96705.50;4989061;28;20073;-56
2021/04/17 02:31:10;;;;;;;15.85;11.75;;;;;;;3.38;100.00;96699.19;4991493;28;20090;-60
2021/04/17 02:33:38;;;;;;;18.80;12.38;;;;;;;3.56;100.00;96696.25;4994893;28;20078;-59
2021/04/17 02:36:06;;;;;;;16.65;12.00;;;;;;;3.21;100.00;96700.19;4990950;28;20096;-61
2021/04/17 02:38:34;;;;;;;17.27;12.20;;;;;;;3.16;100.00;96691.81;4990401;28;20066;-61
2021/04/17 02:41:02;;;;;;;17.60;12.50;;;;;;;3.24;100.00;96695.63;4996077;28;20065;-61
2021/04/17 02:43:30;;;;;;;17.08;11.98;;;;;;;3.15;100.00;96693.59;4989017;28;20084;-61
2021/04/17 02:45:58;;;;;;;20.02;12.82;;;;;;;3.12;100.00;96688.56;4984746;28;20093;-58
2021/04/17 02:48:26;;;;;;;17.92;12.77;;;;;;;3.26;100.00;96690.31;4986302;28;20093;-64
2021/04/17 02:50:53;;;;;;;19.45;13.00;;;;;;;3.51;100.00;96681.81;4986338;28;20074;-58
2021/04/17 02:53:21;;;;;;;20.17;12.80;;;;;;;3.60;100.00;96690.84;4985887;28;20548;-62
2021/04/17 02:55:48;;;;;;;20.40;12.18;;;;;;;3.77;100.00;96686.22;4991312;28;20073;-61
2021/04/17 02:58:16;;;;;;;19.73;12.98;;;;;;;3.68;100.00;96685.97;4988100;28;20081;-59
2021/04/17 03:00:43;;;;;;;18.88;12.85;;;;;;;3.53;100.00;96693.00;4980013;28;20534;-60
2021/04/17 03:03:12;;;;;;;20.00;12.60;;;;;;;3.74;100.00;96682.97;4989446;28;20077;-61
2021/04/17 03:05:40;;;;;;;20.52;13.75;;;;;;;4.05;100.00;96687.09;4990214;28;20069;-61
2021/04/17 03:08:07;;;;;;;20.95;13.40;;;;;;;3.94;100.00;96682.56;4988923;28;20066;-61
2021/04/17 03:10:35;;;;;;;18.67;12.98;;;;;;;3.47;100.00;96686.38;4988899;28;20076;-63
2021/04/17 03:13:03;;;;;;;19.77;12.80;;;;;;;3.80;100.00;96690.44;4989165;28;20104;-63
2021/04/17 03:15:31;;;;;;;19.73;13.35;;;;;;;3.90;100.00;96688.06;4978510;28;20117;-57
2021/04/17 03:17:59;;;;;;;18.80;12.63;;;;;;;3.55;100.00;96683.31;4991673;28;20049;-55
2021/04/17 03:20:27;;;;;;;19.75;12.52;;;;;;;3.92;100.00;96687.06;4986128;28;20078;-61
2021/04/17 03:22:55;;;;;;;20.88;13.73;;;;;;;4.27;100.00;96681.31;4991911;28;20069;-60
2021/04/17 03:25:22;;;;;;;20.35;13.50;;;;;;;3.92;100.00;96676.63;4984091;28;20062;-61
2021/04/17 03:27:50;;;;;;;21.35;13.75;;;;;;;4.15;100.00;96679.50;4989796;28;20185;-60
2021/04/17 03:30:22;;;;;;;22.52;12.85;;;;;;;4.23;100.00;96666.78;4987874;28;20131;-61
2021/04/17 03:32:49;;;;;;;21.30;13.55;;;;;;;4.18;100.00;96672.31;4992054;28;20559;-60
2021/04/17 03:35:17;;;;;;;18.42;12.85;;;;;;;3.88;100.00;96666.47;4990390;28;20474;-59
2021/04/17 03:37:45;;;;;;;19.23;12.85;;;;;;;3.94;100.00;96672.13;4991844;28;20065;-59
2021/04/17 03:40:14;;;;;;;18.40;12.95;;;;;;;4.14;100.00;96665.63;4990172;28;20471;-62
2021/04/17 03:42:42;;;;;;;21.85;12.90;;;;;;;3.37;100.00;96672.25;4988783;28;20085;-59
2021/04/17 03:45:11;;;;;;;21.10;13.40;;;;;;;3.63;100.00;96670.63;4986924;28;20070;-59
2021/04/17 03:47:40;;;;;;;19.67;12.82;;;;;;;3.93;100.00;96665.25;4987880;28;20057;-59
2021/04/17 03:50:09;;;;;;;22.10;13.57;;;;;;;3.65;100.00;96665.31;4987683;28;20074;-66
2021/04/17 03:52:38;;;;;;;20.05;13.82;;;;;;;3.35;100.00;96662.88;4987795;28;20070;-61
2021/04/17 03:55:09;;;;;;;21.27;13.35;;;;;;;3.43;100.00;96671.88;4987471;28;20093;-61
2021/04/17 03:57:38;;;;;;;21.45;12.80;;;;;;;3.46;100.00;96676.06;4978564;28;20086;-61
2021/04/17 04:00:07;;;;;;;20.27;12.90;;;;;;;3.62;100.00;96678.56;4986673;28;20085;-60
2021/04/17 04:02:35;;;;;;;19.42;13.18;;;;;;;3.59;100.00;96676.16;4984933;28;20395;-57
2021/04/17 04:05:04;;;;;;;19.77;13.27;;;;;;;3.73;100.00;96682.16;4993201;28;20073;-60
2021/04/17 04:07:31;;;;;;;22.60;14.52;;;;;;;3.85;100.00;96685.75;4989463;28;20070;-58
2021/04/17 04:09:58;;;;;;;19.80;13.60;;;;;;;3.25;100.00;96681.66;4995746;28;20085;-61
2021/04/17 04:12:27;;;;;;;23.55;13.85;;;;;;;3.32;100.00;96682.13;4989354;28;20082;-61
2021/04/17 04:14:54;;;;;;;23.17;13.95;;;;;;;3.42;100.00;96682.41;4993461;28;20062;-62
2021/04/17 04:17:22;;;;;;;22.38;14.05;;;;;;;3.17;100.00;96685.69;4987174;28;20058;-64
2021/04/17 04:19:50;;;;;;;20.90;13.50;;;;;;;3.22;100.00;96679.25;4996831;28;20630;-60
2021/04/17 04:22:17;;;;;;;20.83;13.18;;;;;;;3.33;100.00;96683.81;4994264;28;20046;-61
2021/04/17 04:24:45;;;;;;;20.30;13.75;;;;;;;3.28;100.00;96685.88;4993935;28;20090;-60
2021/04/17 04:27:12;;;;;;;22.10;13.95;;;;;;;3.20;100.00;96685.47;4981548;28;20123;-61
2021/04/17 04:29:40;;;;;;;22.00;14.13;;;;;;;3.25;100.00;96693.88;4990099;28;20076;-58
2021/04/17 04:32:08;;;;;;;20.10;13.10;;;;;;;3.15;100.00;96685.78;4985205;28;20066;-56
2021/04/17 04:34:36;;;;;;;19.45;13.27;;;;;;;3.43;100.00;96687.50;4994863;28;20063;-61
2021/04/17 04:37:03;;;;;;;21.75;13.77;;;;;;;3.51;100.00;96687.88;4989557;28;20085;-63
2021/04/17 04:39:30;;;;;;;20.52;13.73;;;;;;;3.75;100.00;96685.50;4989568;28;20086;-59
2021/04/17 04:41:58;;;;;;;24.75;14.57;;;;;;;3.52;100.00;96680.91;4993603;28;20065;-58
2021/04/17 04:44:26;;;;;;;20.48;13.50;;;;;;;3.32;100.00;96682.13;4982963;28;20070;-63
2021/04/17 04:46:54;;;;;;;20.85;13.20;;;;;;;3.40;100.00;96694.69;4985898;28;20839;-63
2021/04/17 04:49:23;;;;;;;24.15;15.10;;;;;;;3.71;100.00;96693.59;4994289;28;20066;-61
2021/04/17 04:51:50;;;;;;;23.73;15.48;;;;;;;4.09;100.00;96700.78;4986927;28;20050;-62
2021/04/17 04:54:18;;;;;;;24.17;15.35;;;;;;;4.17;100.00;96694.13;4989704;28;20267;-62
2021/04/17 04:56:47;;;;;;;25.67;15.85;;;;;;;4.45;100.00;96693.16;4989128;28;20480;-62
2021/04/17 04:59:14;;;;;;;25.88;15.32;;;;;;;4.53;100.00;96692.66;4984125;28;20101;-60
2021/04/17 05:01:42;;;;;;;25.00;15.63;;;;;;;4.80;100.00;96708.25;4979525;28;20062;-60
2021/04/17 05:04:11;;;;;;;24.60;15.60;;;;;;;4.91;100.00;96702.31;4996194;28;20073;-59
2021/04/17 05:06:38;;;;;;;23.50;14.93;;;;;;;5.02;100.00;96704.19;4988950;28;20085;-62
2021/04/17 05:09:06;;;;;;;22.35;14.27;;;;;;;4.96;100.00;96701.06;4983418;28;20069;-61
2021/04/17 05:11:34;;;;;;;24.00;15.93;;;;;;;4.74;100.00;96700.81;4970330;28;20063;-60
2021/04/17 05:14:03;;;;;;;24.27;14.70;;;;;;;4.83;100.00;96702.00;4983811;28;20061;-59
2021/04/17 05:16:30;;;;;;;23.10;15.00;;;;;;;4.75;100.00;96702.53;4993250;28;20062;-60
2021/04/17 05:18:58;;;;;;;22.48;14.88;;;;;;;4.80;100.00;96702.19;4991332;28;20385;-60
2021/04/17 05:21:26;;;;;;;22.65;14.35;;;;;;;5.10;100.00;96697.50;4987203;28;20058;-60
2021/04/17 05:23:59;;;;;;;23.48;15.10;;;;;;;5.13;100.00;96696.47;4985252;28;20539;-58
2021/04/17 05:26:27;;;;;;;24.38;15.70;;;;;;;4.93;100.00;96706.50;4990771;28;20123;-62
2021/04/17 05:28:55;;;;;;;24.75;15.50;;;;;;;4.98;100.00;96703.56;4987938;28;20077;-59
2021/04/17 05:31:23;;;;;;;22.95;15.02;;;;;;;4.88;100.00;96711.19;4986722;28;20065;-57
2021/04/17 05:33:50;;;;;;;21.23;14.13;;;;;;;5.04;100.00;96711.00;4990485;28;20078;-60
2021/04/17 05:36:18;;;;;;;24.33;15.52;;;;;;;4.96;100.00;96710.69;4990403;28;21390;-65
2021/04/17 05:38:46;;;;;;;24.17;14.93;;;;;;;5.37;100.00;96709.63;4989020;28;20508;-61
2021/04/17 05:41:19;;;;;;;21.73;14.77;;;;;;;5.51;100.00;96709.50;4971483;28;20415;-60
2021/04/17 05:43:47;;;;;;;23.17;15.27;;;;;;;5.55;100.00;96704.88;4962776;28;20058;-58
2021/04/17 05:46:15;;;;;;;26.08;15.38;;;;;;;5.63;100.00;96713.84;4979630;28;20077;-62
2021/04/17 05:48:43;;;;;;;25.17;16.83;;;;;;;5.73;100.00;96708.81;4981503;28;20066;-62
2021/04/17 05:51:10;;;;;;;27.30;16.15;;;;;;;5.97;100.00;96706.25;4981875;28;20465;-61
2021/04/17 05:53:39;;;;;;;28.25;17.33;;;;;;;5.91;100.00;96709.28;4992521;28;20077;-59
2021/04/17 05:56:08;;;;;;;26.48;17.25;;;;;;;6.03;100.00;96713.69;4993126;28;20459;-60
2021/04/17 05:58:36;;;;;;;26.60;17.45;;;;;;;5.90;100.00;96708.44;4986797;28;20066;-59
2021/04/17 06:01:04;;;;;;;25.83;17.33;;;;;;;5.98;100.00;96712.34;4987882;28;20089;-55
2021/04/17 06:03:31;;;;;;;26.30;16.40;;;;;;;5.76;100.00;96710.38;4991900;28;20081;-65
2021/04/17 06:05:59;;;;;;;28.08;16.95;;;;;;;5.89;100.00;96714.63;4988165;28;20063;-59
2021/04/17 06:08:26;;;;;;;26.90;17.05;;;;;;;6.05;100.00;96714.38;4982648;28;20077;-59
2021/04/17 06:10:54;;;;;;;28.08;16.30;;;;;;;6.13;100.00;96712.06;4981821;28;20058;-62
2021/04/17 06:13:22;;;;;;;24.80;15.63;;;;;;;6.15;100.00;96712.78;4979006;28;20434;-55
2021/04/17 06:15:49;;;;;;;24.67;15.82;;;;;;;6.08;100.00;96719.41;4985132;28;20085;-55
2021/04/17 06:18:17;;;;;;;25.38;15.57;;;;;;;6.06;100.00;96715.25;4982685;28;20081;-57
2021/04/17 06:20:45;;;;;;;22.83;15.10;;;;;;;5.98;100.00;96722.81;4986865;28;20077;-61
2021/04/17 06:23:12;;;;;;;25.90;15.25;;;;;;;5.91;100.00;96712.72;4987817;28;20054;-60
2021/04/17 06:25:41;;;;;;;24.27;15.07;;;;;;;6.03;100.00;96725.94;4988409;28;20129;-58
2021/04/17 06:28:08;;;;;;;24.05;15.35;;;;;;;6.09;100.00;96720.25;4984335;28;20090;-62
2021/04/17 06:30:37;;;;;;;25.50;16.85;;;;;;;6.21;100.00;96718.53;4986354;28;20082;-57
2021/04/17 06:33:05;;;;;;;24.55;15.55;;;;;;;6.30;100.00;96718.72;4980784;28;20062;-59
2021/04/17 06:35:32;;;;;;;26.75;17.17;;;;;;;6.37;100.00;96719.09;4983742;28;20080;-63
2021/04/17 06:38:00;;;;;;;25.58;16.95;;;;;;;6.32;100.00;96713.34;4980380;28;20097;-57
2021/04/17 06:40:28;;;;;;;28.23;17.50;;;;;;;6.55;100.00;96711.66;4988074;28;20084;-59
2021/04/17 06:42:58;;;;;;;29.95;17.80;;;;;;;6.28;100.00;96720.59;4982398;28;20093;-63
2021/04/17 06:45:26;;;;;;;;;;;;;;;6.24;100.00;96715.69;4991505;28;20077;-61
2021/04/17 06:47:55;;;;;;;30.23;16.75;;;;;;;6.09;100.00;96731.56;4980087;28;19965;-58
2021/04/17 06:50:23;;;;;;;26.25;16.20;;;;;;;6.12;100.00;96727.88;4988016;28;20085;-62
2021/04/17 06:52:51;;;;;;;25.38;15.95;;;;;;;6.01;100.00;96720.81;4987761;28;20470;-59
2021/04/17 06:55:19;;;;;;;27.15;17.13;;;;;;;6.17;100.00;96721.38;4987042;28;20470;-59
2021/04/17 06:57:48;;;;;;;25.02;15.40;;;;;;;6.17;100.00;96718.75;4989823;28;20468;-59
2021/04/17 07:00:19;;;;;;;28.03;17.50;;;;;;;6.17;100.00;96716.13;4989079;28;20313;-60
2021/04/17 07:02:46;;;;;;;25.83;17.05;;;;;;;6.54;100.00;96710.00;4989503;28;20109;-60
2021/04/17 07:05:28;;;;;;;25.15;16.80;;;;;;;6.44;100.00;96715.09;4998564;28;20093;-54
2021/04/17 07:07:55;;;;;;;24.33;16.83;;;;;;;6.55;100.00;96722.16;4991696;28;20073;-58
2021/04/17 07:10:22;;;;;;;27.20;16.95;;;;;;;6.59;100.00;96710.47;4989446;28;20085;-62
2021/04/17 07:12:50;;;;;;;27.42;17.23;;;;;;;6.45;100.00;96710.66;4989677;28;20096;-58
2021/04/17 07:15:17;;;;;;;25.80;16.67;;;;;;;6.58;100.00;96711.44;4982241;28;20242;-61
2021/04/17 07:17:45;;;;;;;23.48;15.35;;;;;;;6.77;100.00;96711.72;4991558;28;20092;-60
2021/04/17 07:20:13;;;;;;;24.90;15.48;;;;;;;6.81;100.00;96709.72;4994279;28;20074;-59
2021/04/17 07:22:42;;;;;;;24.20;16.73;;;;;;;6.48;100.00;96703.41;4989329;28;20077;-56
2021/04/17 07:25:18;;;;;;;27.25;16.27;;;;;;;6.56;100.00;96706.31;4989186;28;20066;-61
2021/04/17 07:27:46;;;;;;;26.77;17.05;;;;;;;6.59;100.00;96703.44;4989236;28;20117;-56
2021/04/17 07:30:32;;;;;;;26.17;15.98;;;;;;;6.55;100.00;96702.03;4983289;28;20066;-63
2021/04/17 07:33:11;;;;;;;23.40;14.70;;;;;;;6.42;100.00;96712.56;4985292;28;20077;-63
2021/04/17 07:35:41;;;;;;;23.95;15.32;;;;;;;6.60;100.00;96706.91;4981887;28;20062;-59
2021/04/17 07:38:13;;;;;;;26.67;15.98;;;;;;;6.79;100.00;96699.34;4984909;28;20449;-59
2021/04/17 07:40:41;;;;;;;23.73;15.00;;;;;;;6.73;100.00;96701.59;4987201;28;20095;-61
2021/04/17 07:43:08;;;;;;;25.58;16.77;;;;;;;6.86;100.00;96711.03;4984464;28;20078;-58
2021/04/17 07:45:39;;;;;;;24.27;16.02;;;;;;;6.81;100.00;96704.47;4989477;28;20070;-57
2021/04/17 07:48:21;;;;;;;26.63;16.52;;;;;;;7.02;100.00;96704.63;4986752;28;20081;-58
2021/04/17 07:50:50;;;;;;;25.00;16.42;;;;;;;7.38;100.00;96708.84;4984697;28;20069;-57
2021/04/17 07:53:29;;;;;;;23.52;15.55;;;;;;;7.46;100.00;96700.38;4988448;28;20077;-62
2021/04/17 07:55:57;;;;;;;23.40;14.25;;;;;;;7.64;100.00;96704.22;4982851;28;20062;-58
2021/04/17 07:58:25;;;;;;;20.45;13.05;;;;;;;7.44;100.00;96703.13;4987652;28;20074;-62
2021/04/17 08:00:53;;;;;;;23.88;14.43;;;;;;;7.98;100.00;96702.38;4985517;28;20073;-60
2021/04/17 08:03:23;;;;;;;23.13;13.93;;;;;;;8.24;100.00;96700.25;4988910;28;20097;-59
2021/04/17 08:05:51;;;;;;;;;;;;;;;8.49;100.00;96703.56;4985044;28;20062;-63
2021/04/17 08:08:18;;;;;;;17.45;10.90;;;;;;;8.16;100.00;96701.84;4987872;28;19972;-58
2021/04/17 08:10:47;;;;;;;15.25;10.60;;;;;;;8.62;100.00;96696.31;5018226;22;20542;-50
2021/04/17 08:13:17;;;;;;;17.20;12.05;;;;;;;9.08;99.31;96697.75;5025825;28;20083;-49
2021/04/17 08:15:44;;;;;;;15.15;11.02;;;;;;;8.08;100.00;96697.19;5025586;28;20518;-47
2021/04/17 08:18:12;;;;;;;15.25;11.02;;;;;;;8.61;100.00;96699.94;5026554;28;20528;-51
2021/04/17 08:20:39;;;;;;;15.68;11.15;;;;;;;8.72;100.00;96693.78;5022779;28;20083;-52
2021/04/17 08:23:07;;;;;;;13.95;10.32;;;;;;;9.11;100.00;96694.03;5025249;28;20778;-54
2021/04/17 08:25:35;;;;;;;15.63;9.45;;;;;;;8.56;96.47;96684.50;5023426;28;20053;-51
2021/04/17 08:28:16;;;;;;;14.25;10.05;;;;;;;9.49;89.01;96685.47;5024704;28;20085;-53
2021/04/17 08:30:44;;;;;;;12.70;9.98;;;;;;;10.02;83.30;96682.63;5021475;28;20093;-50
2021/04/17 08:33:13;;;;;;;16.00;11.20;;;;;;;9.09;97.22;96681.00;5025803;28;20061;-49
2021/04/17 08:35:41;;;;;;;12.85;9.52;;;;;;;10.08;88.75;96681.22;5023603;28;20077;-51
2021/04/17 08:38:10;;;;;;;12.77;8.05;;;;;;;9.83;77.08;96686.03;5021877;28;20069;-53
2021/04/17 08:40:53;;;;;;;203.82;120.72;;;;;;;10.39;76.70;96676.72;5023459;28;20095;-48
2021/04/17 08:43:32;;;;;;;12.07;8.43;;;;;;;8.68;93.16;96681.84;5025309;28;20065;-51
2021/04/17 08:46:08;;;;;;;13.52;9.02;;;;;;;9.46;80.85;96681.34;5019934;28;20081;-52
2021/04/17 08:48:55;;;;;;;14.93;10.07;;;;;;;9.40;88.00;96687.13;5027643;28;20080;-49
2021/04/17 08:51:32;;;;;;;13.88;10.30;;;;;;;9.72;85.08;96684.31;5021022;28;20061;-51
2021/04/17 08:54:23;;;;;;;15.02;9.70;;;;;;;9.79;80.08;96683.81;5024285;28;20069;-52
2021/04/17 08:56:56;;;;;;;13.85;10.10;;;;;;;9.78;80.32;96682.13;5017608;28;20066;-53
2021/04/17 08:59:27;;;;;;;12.38;7.55;;;;;;;10.06;70.37;96670.00;5023080;28;20079;-51
2021/04/17 09:01:56;;;;;;;12.80;9.07;;;;;;;9.45;74.96;96676.19;5021817;28;20080;-48
2021/04/17 09:04:26;;;;;;;11.40;7.40;;;;;;;10.50;69.75;96663.41;5023009;28;20069;-53
2021/04/17 09:06:56;;;;;;;10.95;7.60;;;;;;;10.10;77.82;96666.13;5020074;28;20503;-49
2021/04/17 09:09:28;;;;;;;11.95;7.47;;;;;;;10.07;79.20;96661.13;5025762;28;20091;-54
2021/04/17 09:12:14;;;;;;;8.70;6.70;;;;;;;9.48;81.33;96666.22;5021491;28;20080;-51
2021/04/17 09:14:56;;;;;;;9.35;7.30;;;;;;;9.60;80.99;96669.63;5024359;28;20539;-55
2021/04/17 09:17:43;;;;;;;11.20;7.32;;;;;;;10.28;73.71;96658.41;5017853;28;20080;-55
2021/04/17 09:20:32;;;;;;;10.60;7.15;;;;;;;9.45;79.41;96663.03;5022161;28;20061;-55
2021/04/17 09:23:00;;;;;;;11.23;8.15;;;;;;;9.81;76.27;96664.28;5023077;28;20065;-50
2021/04/17 09:25:39;;;;;;;10.70;8.75;;;;;;;10.64;74.68;96647.16;5025628;28;20112;-51
2021/04/17 09:28:35;;;;;;;10.65;7.68;;;;;;;10.91;79.58;96650.88;5021702;28;20053;-56
2021/04/17 09:31:05;;;;;;;11.82;8.40;;;;;;;10.16;70.71;96650.59;5023940;28;20100;-54
2021/04/17 09:33:33;;;;;;;10.02;7.38;;;;;;;9.90;76.43;96649.44;5023223;28;20088;-55
2021/04/17 09:36:00;;;;;;;10.73;8.07;;;;;;;10.48;67.77;96649.53;5020476;28;20073;-51
2021/04/17 09:38:30;;;;;;;10.05;7.03;;;;;;;10.73;61.79;96644.63;5021814;28;20073;-54
2021/04/17 09:40:58;;;;;;;12.02;8.30;;;;;;;11.14;58.66;96649.53;5023880;28;20069;-50
2021/04/17 09:43:28;;;;;;;12.25;9.45;;;;;;;10.66;65.08;96647.84;5021686;28;20080;-51
2021/04/17 09:45:56;;;;;;;15.02;10.35;;;;;;;10.90;65.46;96644.75;5025998;28;20077;-50
2021/04/17 09:48:25;;;;;;;13.80;9.80;;;;;;;10.39;72.45;96645.06;5020187;28;20100;-54
2021/04/17 09:50:56;;;;;;;13.70;10.20;;;;;;;10.79;68.33;96644.91;5022424;28;20072;-56
2021/04/17 09:53:29;;;;;;;12.68;9.65;;;;;;;10.47;66.59;96650.50;5024838;28;20065;-54
2021/04/17 09:55:59;;;;;;;12.85;9.38;;;;;;;10.24;74.30;96642.00;5024294;28;20069;-53
2021/04/17 09:58:32;;;;;;;12.60;9.03;;;;;;;10.41;70.44;96646.59;5028122;28;20073;-50
2021/04/17 10:01:08;;;;;;;13.77;10.60;;;;;;;11.10;61.63;96636.78;5027394;28;20084;-54
2021/04/17 10:03:38;;;;;;;13.60;10.73;;;;;;;10.60;65.23;96634.41;5029945;28;20092;-54
2021/04/17 10:06:25;;;;;;;15.10;10.63;;;;;;;11.58;60.87;96626.03;5026056;28;20065;-49
2021/04/17 10:08:53;;;;;;;15.68;10.65;;;;;;;10.78;68.62;96624.78;5022166;28;20073;-52
2021/04/17 10:11:23;;;;;;;13.98;9.68;;;;;;;11.00;66.77;96614.88;5022556;28;20080;-49
2021/04/17 10:13:51;;;;;;;12.23;8.48;;;;;;;11.12;60.75;96619.03;5025757;28;20061;-53
2021/04/17 10:16:27;;;;;;;13.38;9.50;;;;;;;11.00;63.39;96612.25;5025277;28;20069;-52
2021/04/17 10:18:56;;;;;;;11.20;8.60;;;;;;;11.52;59.43;96617.88;5026556;28;20046;-54
2021/04/17 10:21:28;;;;;;;13.10;9.60;;;;;;;11.14;58.70;96614.41;5028150;28;20081;-54
2021/04/17 10:24:19;;;;;;;13.00;9.38;;;;;;;10.84;65.46;96605.75;5029075;28;20083;-55
2021/04/17 10:26:57;;;;;;;13.80;8.88;;;;;;;10.83;65.85;96603.25;5027699;28;20061;-55
2021/04/17 10:29:49;;;;;;;11.98;9.48;;;;;;;11.43;61.08;96603.75;5024205;28;20086;-48
2021/04/17 10:32:18;;;;;;;13.65;9.80;;;;;;;11.21;60.05;96607.56;5006835;28;20072;-53
2021/04/17 10:34:48;;;;;;;13.02;9.75;;;;;;;11.02;62.60;96595.28;5027839;28;20068;-51
2021/04/17 10:37:17;;;;;;;19.83;14.43;;;;;;;11.17;58.62;96593.00;5023994;28;20068;-52
2021/04/17 10:39:58;;;;;;;12.55;8.43;;;;;;;10.14;63.37;96605.09;5028667;28;21229;-53
2021/04/17 10:42:26;;;;;;;14.27;9.27;;;;;;;10.63;62.75;96600.66;5024994;28;20474;-51
2021/04/17 10:44:54;;;;;;;13.75;9.63;;;;;;;9.93;66.72;96596.50;5027112;28;20204;-53
2021/04/17 10:47:21;;;;;;;15.45;10.05;;;;;;;9.20;75.02;96606.44;5023065;28;20069;-55
2021/04/17 10:49:50;;;;;;;16.40;10.85;;;;;;;9.78;70.25;96595.22;5027284;28;20064;-52
2021/04/17 10:52:29;;;;;;;16.58;9.25;;;;;;;9.60;70.07;96595.91;5025492;28;20072;-56
2021/04/17 10:54:57;;;;;;;12.15;9.02;;;;;;;9.62;70.51;96595.75;5024749;28;20077;-52
2021/04/17 10:57:26;;;;;;;19.48;12.70;;;;;;;9.58;71.18;96591.72;5025259;28;20073;-53
2021/04/17 10:59:55;;;;;;;16.48;12.13;;;;;;;9.37;73.89;96597.06;5025951;28;20072;-51
2021/04/17 11:02:25;;;;;;;13.18;9.05;;;;;;;9.66;72.11;96592.69;5023169;28;20076;-50
2021/04/17 11:04:53;;;;;;;15.80;10.95;;;;;;;9.60;72.79;96585.38;5027333;28;20065;-54
2021/04/17 11:07:30;;;;;;;15.48;10.15;;;;;;;9.22;72.13;96593.94;5023841;28;20065;-48
2021/04/17 11:09:57;;;;;;;18.98;10.25;;;;;;;9.47;76.54;96587.41;5024828;28;20077;-54
2021/04/17 11:12:27;;;;;;;10.45;8.25;;;;;;;9.23;72.49;96599.09;5024981;28;20087;-52
2021/04/17 11:15:18;;;;;;;13.02;8.43;;;;;;;9.18;69.03;96585.50;5022021;28;20457;-53
2021/04/17 11:18:13;;;;;;;12.27;8.48;;;;;;;9.90;65.56;96584.41;5020778;28;20531;-49
2021/04/17 11:20:55;;;;;;;11.20;8.70;;;;;;;9.89;67.46;96571.41;5027471;28;20064;-51
2021/04/17 11:23:45;;;;;;;10.20;7.60;;;;;;;10.15;65.79;96576.94;5023674;28;20443;-50
2021/04/17 11:26:15;;;;;;;13.02;9.57;;;;;;;10.29;65.17;96580.97;5020417;28;20065;-49
2021/04/17 11:28:44;;;;;;;11.77;8.68;;;;;;;10.04;64.68;96575.28;5024625;28;20470;-54
2021/04/17 11:31:16;;;;;;;15.25;9.38;;;;;;;10.35;64.50;96572.53;5024503;28;20072;-52
2021/04/17 11:33:45;;;;;;;11.70;8.88;;;;;;;10.10;64.23;96569.44;5007079;28;20081;-49
2021/04/17 11:36:20;;;;;;;12.38;9.15;;;;;;;10.58;62.56;96568.59;5031771;28;20524;-52